sensor_id;sensor_type;location;lat;lon;timestamp;temperature;humidity
22290;DHT22;11313;50.116;8.424;2022-11-20T00:00:52;24.40;50.40
22290;DHT22;11313;50.116;8.424;2022-11-20T00:03:17;24.40;50.40
22290;DHT22;11313;50.116;8.424;2022-11-20T00:05:44;24.40;50.40
22290;DHT22;11313;50.116;8.424;2022-11-20T00:08:09;24.30;50.30
22290;DHT22;11313;50.116;8.424;2022-11-20T00:10:39;24.30;50.40
22290;DHT22;11313;50.116;8.424;2022-11-20T00:13:05;24.40;50.40
22290;DHT22;11313;50.116;8.424;2022-11-20T00:15:31;24.40;50.40
22290;DHT22;11313;50.116;8.424;2022-11-20T00:17:57;24.30;50.40
22290;DHT22;11313;50.116;8.424;2022-11-20T00:20:23;24.30;50.40
22290;DHT22;11313;50.116;8.424;2022-11-20T00:22:49;24.30;50.40
22290;DHT22;11313;50.116;8.424;2022-11-20T00:25:15;24.30;50.40
22290;DHT22;11313;50.116;8.424;2022-11-20T00:27:41;24.30;50.40
22290;DHT22;11313;50.116;8.424;2022-11-20T00:30:07;24.30;50.40
22290;DHT22;11313;50.116;8.424;2022-11-20T00:32:32;24.30;50.50
22290;DHT22;11313;50.116;8.424;2022-11-20T00:34:58;24.30;50.50
22290;DHT22;11313;50.116;8.424;2022-11-20T00:37:23;24.30;50.50
22290;DHT22;11313;50.116;8.424;2022-11-20T00:39:49;24.30;50.50
22290;DHT22;11313;50.116;8.424;2022-11-20T00:42:14;24.30;50.50
22290;DHT22;11313;50.116;8.424;2022-11-20T00:44:40;24.30;50.50
22290;DHT22;11313;50.116;8.424;2022-11-20T00:47:05;24.30;50.50
22290;DHT22;11313;50.116;8.424;2022-11-20T00:49:31;24.30;50.40
22290;DHT22;11313;50.116;8.424;2022-11-20T00:51:56;24.30;50.40
22290;DHT22;11313;50.116;8.424;2022-11-20T00:54:22;24.30;50.40
22290;DHT22;11313;50.116;8.424;2022-11-20T00:56:47;24.30;50.40
22290;DHT22;11313;50.116;8.424;2022-11-20T00:59:13;24.30;50.50
22290;DHT22;11313;50.116;8.424;2022-11-20T01:01:38;24.30;50.50
22290;DHT22;11313;50.116;8.424;2022-11-20T01:04:04;24.30;50.40
22290;DHT22;11313;50.116;8.424;2022-11-20T01:06:35;24.20;50.40
22290;DHT22;11313;50.116;8.424;2022-11-20T01:09:10;24.30;50.50
22290;DHT22;11313;50.116;8.424;2022-11-20T01:11:39;24.30;50.50
22290;DHT22;11313;50.116;8.424;2022-11-20T01:14:07;24.20;50.40
22290;DHT22;11313;50.116;8.424;2022-11-20T01:16:41;24.20;50.50
22290;DHT22;11313;50.116;8.424;2022-11-20T01:19:11;24.20;50.40
22290;DHT22;11313;50.116;8.424;2022-11-20T01:21:39;24.20;50.50
22290;DHT22;11313;50.116;8.424;2022-11-20T01:24:06;24.20;50.40
22290;DHT22;11313;50.116;8.424;2022-11-20T01:26:34;24.20;50.40
22290;DHT22;11313;50.116;8.424;2022-11-20T01:29:02;24.20;50.50
22290;DHT22;11313;50.116;8.424;2022-11-20T01:31:35;24.20;50.50
22290;DHT22;11313;50.116;8.424;2022-11-20T01:34:04;24.20;50.50
22290;DHT22;11313;50.116;8.424;2022-11-20T01:36:31;24.20;50.50
22290;DHT22;11313;50.116;8.424;2022-11-20T01:39:00;24.20;50.50
22290;DHT22;11313;50.116;8.424;2022-11-20T01:41:27;24.20;50.50
22290;DHT22;11313;50.116;8.424;2022-11-20T01:44:14;24.20;50.60
22290;DHT22;11313;50.116;8.424;2022-11-20T01:46:51;24.20;50.60
22290;DHT22;11313;50.116;8.424;2022-11-20T01:49:27;24.20;50.60
22290;DHT22;11313;50.116;8.424;2022-11-20T01:52:00;24.20;50.70
22290;DHT22;11313;50.116;8.424;2022-11-20T01:54:35;24.10;50.60
22290;DHT22;11313;50.116;8.424;2022-11-20T01:57:02;24.10;50.60
22290;DHT22;11313;50.116;8.424;2022-11-20T01:59:29;24.10;50.70
22290;DHT22;11313;50.116;8.424;2022-11-20T02:01:55;24.10;50.70
22290;DHT22;11313;50.116;8.424;2022-11-20T02:04:22;24.10;50.70
22290;DHT22;11313;50.116;8.424;2022-11-20T02:06:59;24.10;50.70
22290;DHT22;11313;50.116;8.424;2022-11-20T02:09:24;24.10;50.70
22290;DHT22;11313;50.116;8.424;2022-11-20T02:11:50;24.10;51.40
22290;DHT22;11313;50.116;8.424;2022-11-20T02:14:16;24.10;50.70
22290;DHT22;11313;50.116;8.424;2022-11-20T02:16:46;24.10;50.80
22290;DHT22;11313;50.116;8.424;2022-11-20T02:19:31;24.00;50.80
22290;DHT22;11313;50.116;8.424;2022-11-20T02:22:27;24.10;50.90
22290;DHT22;11313;50.116;8.424;2022-11-20T02:24:53;24.10;50.90
22290;DHT22;11313;50.116;8.424;2022-11-20T02:27:19;24.00;51.00
22290;DHT22;11313;50.116;8.424;2022-11-20T02:32:19;24.00;51.00
22290;DHT22;11313;50.116;8.424;2022-11-20T02:34:45;24.00;51.00
22290;DHT22;11313;50.116;8.424;2022-11-20T02:37:10;24.00;51.00
22290;DHT22;11313;50.116;8.424;2022-11-20T02:39:36;24.00;51.00
22290;DHT22;11313;50.116;8.424;2022-11-20T02:42:02;23.90;51.00
22290;DHT22;11313;50.116;8.424;2022-11-20T02:44:27;23.90;51.00
22290;DHT22;11313;50.116;8.424;2022-11-20T02:46:53;23.90;51.00
22290;DHT22;11313;50.116;8.424;2022-11-20T02:49:21;23.90;51.00
22290;DHT22;11313;50.116;8.424;2022-11-20T02:51:47;23.90;51.00
22290;DHT22;11313;50.116;8.424;2022-11-20T02:54:12;23.90;51.00
22290;DHT22;11313;50.116;8.424;2022-11-20T02:56:38;23.90;51.00
22290;DHT22;11313;50.116;8.424;2022-11-20T02:59:04;23.90;51.10
22290;DHT22;11313;50.116;8.424;2022-11-20T03:01:29;23.90;51.10
22290;DHT22;11313;50.116;8.424;2022-11-20T03:03:55;23.90;51.10
22290;DHT22;11313;50.116;8.424;2022-11-20T03:06:21;23.90;51.10
22290;DHT22;11313;50.116;8.424;2022-11-20T03:08:47;23.90;51.10
22290;DHT22;11313;50.116;8.424;2022-11-20T03:11:13;23.90;51.10
22290;DHT22;11313;50.116;8.424;2022-11-20T03:13:38;23.90;51.30
22290;DHT22;11313;50.116;8.424;2022-11-20T03:16:12;23.90;51.10
22290;DHT22;11313;50.116;8.424;2022-11-20T03:18:39;23.90;51.10
22290;DHT22;11313;50.116;8.424;2022-11-20T03:21:05;23.90;51.10
22290;DHT22;11313;50.116;8.424;2022-11-20T03:23:31;23.90;51.10
22290;DHT22;11313;50.116;8.424;2022-11-20T03:26:08;23.90;51.10
22290;DHT22;11313;50.116;8.424;2022-11-20T03:28:33;23.90;51.10
22290;DHT22;11313;50.116;8.424;2022-11-20T03:31:05;23.90;51.10
22290;DHT22;11313;50.116;8.424;2022-11-20T03:33:31;23.90;51.10
22290;DHT22;11313;50.116;8.424;2022-11-20T03:36:01;23.90;51.00
22290;DHT22;11313;50.116;8.424;2022-11-20T03:38:29;23.90;51.00
22290;DHT22;11313;50.116;8.424;2022-11-20T03:41:02;23.90;51.00
22290;DHT22;11313;50.116;8.424;2022-11-20T03:43:28;23.90;51.00
22290;DHT22;11313;50.116;8.424;2022-11-20T03:45:54;23.90;51.00
22290;DHT22;11313;50.116;8.424;2022-11-20T03:48:19;23.90;51.00
22290;DHT22;11313;50.116;8.424;2022-11-20T03:50:45;23.90;51.60
22290;DHT22;11313;50.116;8.424;2022-11-20T03:53:15;23.90;51.00
22290;DHT22;11313;50.116;8.424;2022-11-20T03:55:41;23.90;50.90
22290;DHT22;11313;50.116;8.424;2022-11-20T03:58:07;24.00;51.00
22290;DHT22;11313;50.116;8.424;2022-11-20T04:00:33;23.90;51.00
22290;DHT22;11313;50.116;8.424;2022-11-20T04:03:00;23.90;51.00
22290;DHT22;11313;50.116;8.424;2022-11-20T04:05:26;23.90;51.00
22290;DHT22;11313;50.116;8.424;2022-11-20T04:07:51;23.90;51.00
22290;DHT22;11313;50.116;8.424;2022-11-20T04:10:17;23.90;51.00
22290;DHT22;11313;50.116;8.424;2022-11-20T04:12:42;24.00;51.10
22290;DHT22;11313;50.116;8.424;2022-11-20T04:15:08;23.90;51.00
22290;DHT22;11313;50.116;8.424;2022-11-20T04:17:34;23.90;51.00
22290;DHT22;11313;50.116;8.424;2022-11-20T04:19:59;23.90;51.00
22290;DHT22;11313;50.116;8.424;2022-11-20T04:22:25;23.90;51.00
22290;DHT22;11313;50.116;8.424;2022-11-20T04:24:50;23.90;51.00
22290;DHT22;11313;50.116;8.424;2022-11-20T04:27:16;23.90;51.00
22290;DHT22;11313;50.116;8.424;2022-11-20T04:29:41;23.90;51.00
22290;DHT22;11313;50.116;8.424;2022-11-20T04:32:07;23.90;51.00
22290;DHT22;11313;50.116;8.424;2022-11-20T04:34:32;23.90;51.00
22290;DHT22;11313;50.116;8.424;2022-11-20T04:36:58;23.90;51.10
22290;DHT22;11313;50.116;8.424;2022-11-20T04:39:23;23.90;51.10
22290;DHT22;11313;50.116;8.424;2022-11-20T04:41:49;23.90;51.10
22290;DHT22;11313;50.116;8.424;2022-11-20T04:44:34;23.90;51.10
22290;DHT22;11313;50.116;8.424;2022-11-20T04:46:59;23.90;51.20
22290;DHT22;11313;50.116;8.424;2022-11-20T04:49:25;23.90;51.10
22290;DHT22;11313;50.116;8.424;2022-11-20T04:51:53;23.90;51.20
22290;DHT22;11313;50.116;8.424;2022-11-20T04:54:18;23.90;51.20
22290;DHT22;11313;50.116;8.424;2022-11-20T04:56:47;23.90;51.30
22290;DHT22;11313;50.116;8.424;2022-11-20T04:59:13;23.90;51.20
22290;DHT22;11313;50.116;8.424;2022-11-20T05:01:38;23.90;51.20
22290;DHT22;11313;50.116;8.424;2022-11-20T05:04:04;23.80;51.20
22290;DHT22;11313;50.116;8.424;2022-11-20T05:06:30;23.80;51.20
22290;DHT22;11313;50.116;8.424;2022-11-20T05:08:56;23.80;51.20
22290;DHT22;11313;50.116;8.424;2022-11-20T05:11:22;23.80;51.20
22290;DHT22;11313;50.116;8.424;2022-11-20T05:13:48;23.80;51.20
22290;DHT22;11313;50.116;8.424;2022-11-20T05:16:16;23.80;51.30
22290;DHT22;11313;50.116;8.424;2022-11-20T05:18:42;23.80;51.30
22290;DHT22;11313;50.116;8.424;2022-11-20T05:21:09;23.80;51.30
22290;DHT22;11313;50.116;8.424;2022-11-20T05:23:35;23.80;51.30
22290;DHT22;11313;50.116;8.424;2022-11-20T05:26:02;23.80;51.30
22290;DHT22;11313;50.116;8.424;2022-11-20T05:28:29;23.80;51.30
22290;DHT22;11313;50.116;8.424;2022-11-20T05:30:55;23.80;51.40
22290;DHT22;11313;50.116;8.424;2022-11-20T05:33:21;23.80;51.40
22290;DHT22;11313;50.116;8.424;2022-11-20T05:35:46;23.80;51.30
22290;DHT22;11313;50.116;8.424;2022-11-20T05:38:13;23.80;51.40
22290;DHT22;11313;50.116;8.424;2022-11-20T05:40:38;23.80;51.40
22290;DHT22;11313;50.116;8.424;2022-11-20T05:43:04;23.70;51.40
22290;DHT22;11313;50.116;8.424;2022-11-20T05:45:29;23.80;51.50
22290;DHT22;11313;50.116;8.424;2022-11-20T05:47:58;23.70;51.40
22290;DHT22;11313;50.116;8.424;2022-11-20T05:50:25;23.80;51.50
22290;DHT22;11313;50.116;8.424;2022-11-20T05:52:51;23.70;51.40
22290;DHT22;11313;50.116;8.424;2022-11-20T05:55:16;23.70;51.40
22290;DHT22;11313;50.116;8.424;2022-11-20T05:57:42;23.70;51.40
22290;DHT22;11313;50.116;8.424;2022-11-20T06:00:08;23.70;51.40
22290;DHT22;11313;50.116;8.424;2022-11-20T06:02:34;23.70;52.10
22290;DHT22;11313;50.116;8.424;2022-11-20T06:05:01;23.70;51.50
22290;DHT22;11313;50.116;8.424;2022-11-20T06:07:26;23.70;51.50
22290;DHT22;11313;50.116;8.424;2022-11-20T06:09:52;23.70;51.50
22290;DHT22;11313;50.116;8.424;2022-11-20T06:12:17;23.70;51.50
22290;DHT22;11313;50.116;8.424;2022-11-20T06:14:43;23.70;51.50
22290;DHT22;11313;50.116;8.424;2022-11-20T06:17:08;23.70;51.50
22290;DHT22;11313;50.116;8.424;2022-11-20T06:19:33;23.70;51.50
22290;DHT22;11313;50.116;8.424;2022-11-20T06:21:59;23.70;51.50
22290;DHT22;11313;50.116;8.424;2022-11-20T06:24:24;23.70;51.50
22290;DHT22;11313;50.116;8.424;2022-11-20T06:26:50;23.60;51.50
22290;DHT22;11313;50.116;8.424;2022-11-20T06:29:16;23.60;51.50
22290;DHT22;11313;50.116;8.424;2022-11-20T06:31:41;23.70;51.50
22290;DHT22;11313;50.116;8.424;2022-11-20T06:34:08;23.70;51.50
22290;DHT22;11313;50.116;8.424;2022-11-20T06:36:33;23.60;51.50
22290;DHT22;11313;50.116;8.424;2022-11-20T06:38:59;23.60;51.50
22290;DHT22;11313;50.116;8.424;2022-11-20T06:41:25;23.60;51.50
22290;DHT22;11313;50.116;8.424;2022-11-20T06:43:51;23.70;51.50
22290;DHT22;11313;50.116;8.424;2022-11-20T06:46:18;23.60;51.50
22290;DHT22;11313;50.116;8.424;2022-11-20T06:48:45;23.60;51.50
22290;DHT22;11313;50.116;8.424;2022-11-20T06:51:11;23.60;52.10
22290;DHT22;11313;50.116;8.424;2022-11-20T06:53:36;23.60;51.50
22290;DHT22;11313;50.116;8.424;2022-11-20T06:56:03;23.60;51.50
22290;DHT22;11313;50.116;8.424;2022-11-20T06:58:30;23.60;51.50
22290;DHT22;11313;50.116;8.424;2022-11-20T07:01:07;23.60;51.50
22290;DHT22;11313;50.116;8.424;2022-11-20T07:03:34;23.70;51.50
22290;DHT22;11313;50.116;8.424;2022-11-20T07:06:00;23.70;51.50
22290;DHT22;11313;50.116;8.424;2022-11-20T07:08:26;23.70;51.50
22290;DHT22;11313;50.116;8.424;2022-11-20T07:10:52;23.70;51.50
22290;DHT22;11313;50.116;8.424;2022-11-20T07:13:17;23.70;51.40
22290;DHT22;11313;50.116;8.424;2022-11-20T07:15:43;23.70;51.40
22290;DHT22;11313;50.116;8.424;2022-11-20T07:18:08;23.70;51.50
22290;DHT22;11313;50.116;8.424;2022-11-20T07:20:34;23.70;51.50
22290;DHT22;11313;50.116;8.424;2022-11-20T07:22:59;23.70;51.50
22290;DHT22;11313;50.116;8.424;2022-11-20T07:25:26;23.70;51.40
22290;DHT22;11313;50.116;8.424;2022-11-20T07:27:53;23.70;51.40
22290;DHT22;11313;50.116;8.424;2022-11-20T07:30:18;23.70;51.50
22290;DHT22;11313;50.116;8.424;2022-11-20T07:32:51;23.70;51.40
22290;DHT22;11313;50.116;8.424;2022-11-20T07:35:16;23.70;51.40
22290;DHT22;11313;50.116;8.424;2022-11-20T07:37:42;23.70;51.40
22290;DHT22;11313;50.116;8.424;2022-11-20T07:40:08;23.70;51.40
22290;DHT22;11313;50.116;8.424;2022-11-20T07:42:33;23.70;51.40
22290;DHT22;11313;50.116;8.424;2022-11-20T07:44:59;23.80;51.40
22290;DHT22;11313;50.116;8.424;2022-11-20T07:47:24;23.70;51.40
22290;DHT22;11313;50.116;8.424;2022-11-20T07:49:50;23.70;51.40
22290;DHT22;11313;50.116;8.424;2022-11-20T07:52:15;23.70;51.40
22290;DHT22;11313;50.116;8.424;2022-11-20T07:54:41;23.70;51.50
22290;DHT22;11313;50.116;8.424;2022-11-20T07:57:06;23.70;51.40
22290;DHT22;11313;50.116;8.424;2022-11-20T07:59:32;23.70;51.40
22290;DHT22;11313;50.116;8.424;2022-11-20T08:01:57;23.70;51.30
22290;DHT22;11313;50.116;8.424;2022-11-20T08:04:23;23.80;51.40
22290;DHT22;11313;50.116;8.424;2022-11-20T08:06:48;23.70;51.40
22290;DHT22;11313;50.116;8.424;2022-11-20T08:09:14;23.70;51.30
22290;DHT22;11313;50.116;8.424;2022-11-20T08:11:39;23.70;51.30
22290;DHT22;11313;50.116;8.424;2022-11-20T08:14:23;23.70;51.30
22290;DHT22;11313;50.116;8.424;2022-11-20T08:16:49;23.80;51.30
22290;DHT22;11313;50.116;8.424;2022-11-20T08:19:17;23.70;51.30
22290;DHT22;11313;50.116;8.424;2022-11-20T08:21:43;23.70;51.30
22290;DHT22;11313;50.116;8.424;2022-11-20T08:24:10;23.70;51.20
22290;DHT22;11313;50.116;8.424;2022-11-20T08:26:36;23.70;51.20
22290;DHT22;11313;50.116;8.424;2022-11-20T08:29:03;23.70;51.20
22290;DHT22;11313;50.116;8.424;2022-11-20T08:31:29;23.80;51.20
22290;DHT22;11313;50.116;8.424;2022-11-20T08:33:55;23.70;51.10
22290;DHT22;11313;50.116;8.424;2022-11-20T08:36:21;23.80;51.10
22290;DHT22;11313;50.116;8.424;2022-11-20T08:38:54;23.70;51.10
22290;DHT22;11313;50.116;8.424;2022-11-20T08:41:21;23.70;51.10
22290;DHT22;11313;50.116;8.424;2022-11-20T08:43:50;23.70;51.20
22290;DHT22;11313;50.116;8.424;2022-11-20T08:46:16;23.70;51.20
22290;DHT22;11313;50.116;8.424;2022-11-20T08:48:42;23.70;51.10
22290;DHT22;11313;50.116;8.424;2022-11-20T08:51:07;23.70;51.10
22290;DHT22;11313;50.116;8.424;2022-11-20T08:53:33;23.70;51.10
22290;DHT22;11313;50.116;8.424;2022-11-20T08:55:58;23.70;51.20
22290;DHT22;11313;50.116;8.424;2022-11-20T08:58:25;23.70;51.20
22290;DHT22;11313;50.116;8.424;2022-11-20T09:00:50;23.70;51.20
22290;DHT22;11313;50.116;8.424;2022-11-20T09:03:16;23.70;51.20
22290;DHT22;11313;50.116;8.424;2022-11-20T09:05:41;23.70;51.20
22290;DHT22;11313;50.116;8.424;2022-11-20T09:08:08;23.70;51.50
22290;DHT22;11313;50.116;8.424;2022-11-20T09:10:33;23.70;51.20
22290;DHT22;11313;50.116;8.424;2022-11-20T09:12:59;23.70;51.30
22290;DHT22;11313;50.116;8.424;2022-11-20T09:15:25;23.70;51.20
22290;DHT22;11313;50.116;8.424;2022-11-20T09:17:55;23.60;51.20
22290;DHT22;11313;50.116;8.424;2022-11-20T09:20:21;23.60;51.20
22290;DHT22;11313;50.116;8.424;2022-11-20T09:22:47;23.70;51.30
22290;DHT22;11313;50.116;8.424;2022-11-20T09:25:12;23.70;51.30
22290;DHT22;11313;50.116;8.424;2022-11-20T09:27:38;23.70;51.30
22290;DHT22;11313;50.116;8.424;2022-11-20T09:30:04;23.70;51.30
22290;DHT22;11313;50.116;8.424;2022-11-20T09:32:30;23.70;51.30
22290;DHT22;11313;50.116;8.424;2022-11-20T09:34:55;23.70;51.30
22290;DHT22;11313;50.116;8.424;2022-11-20T09:37:21;23.70;51.30
22290;DHT22;11313;50.116;8.424;2022-11-20T09:39:46;23.70;51.30
22290;DHT22;11313;50.116;8.424;2022-11-20T09:42:45;23.70;51.30
22290;DHT22;11313;50.116;8.424;2022-11-20T09:56:17;23.60;51.30
22290;DHT22;11313;50.116;8.424;2022-11-20T09:58:47;23.70;51.30
22290;DHT22;11313;50.116;8.424;2022-11-20T10:01:16;23.60;51.30
22290;DHT22;11313;50.116;8.424;2022-11-20T10:04:18;23.70;51.30
22290;DHT22;11313;50.116;8.424;2022-11-20T10:09:29;23.70;51.30
22290;DHT22;11313;50.116;8.424;2022-11-20T10:14:53;23.70;51.20
22290;DHT22;11313;50.116;8.424;2022-11-20T10:20:15;23.70;51.90
22290;DHT22;11313;50.116;8.424;2022-11-20T10:25:18;23.70;51.30
22290;DHT22;11313;50.116;8.424;2022-11-20T10:28:09;23.70;51.20
22290;DHT22;11313;50.116;8.424;2022-11-20T10:30:44;23.70;51.30
22290;DHT22;11313;50.116;8.424;2022-11-20T10:33:17;23.70;51.30
22290;DHT22;11313;50.116;8.424;2022-11-20T10:35:53;23.70;51.30
22290;DHT22;11313;50.116;8.424;2022-11-20T10:38:25;23.70;51.20
22290;DHT22;11313;50.116;8.424;2022-11-20T10:40:59;23.70;51.20
22290;DHT22;11313;50.116;8.424;2022-11-20T10:43:46;23.70;51.30
22290;DHT22;11313;50.116;8.424;2022-11-20T10:46:18;23.70;51.30
22290;DHT22;11313;50.116;8.424;2022-11-20T10:48:45;23.70;51.30
22290;DHT22;11313;50.116;8.424;2022-11-20T10:51:37;23.70;51.20
22290;DHT22;11313;50.116;8.424;2022-11-20T10:54:32;23.70;51.20
22290;DHT22;11313;50.116;8.424;2022-11-20T10:59:47;23.70;51.20
22290;DHT22;11313;50.116;8.424;2022-11-20T11:02:22;23.80;51.30
22290;DHT22;11313;50.116;8.424;2022-11-20T11:04:54;23.70;51.20
22290;DHT22;11313;50.116;8.424;2022-11-20T11:07:25;23.70;51.30
22290;DHT22;11313;50.116;8.424;2022-11-20T11:09:54;23.70;51.20
22290;DHT22;11313;50.116;8.424;2022-11-20T11:12:22;23.80;51.20
22290;DHT22;11313;50.116;8.424;2022-11-20T11:14:51;23.80;51.20
22290;DHT22;11313;50.116;8.424;2022-11-20T11:17:33;23.80;51.20
22290;DHT22;11313;50.116;8.424;2022-11-20T11:20:00;23.80;51.20
22290;DHT22;11313;50.116;8.424;2022-11-20T11:22:29;23.80;51.20
22290;DHT22;11313;50.116;8.424;2022-11-20T11:24:55;23.80;51.20
22290;DHT22;11313;50.116;8.424;2022-11-20T11:27:20;23.80;51.10
22290;DHT22;11313;50.116;8.424;2022-11-20T11:29:46;23.80;51.10
22290;DHT22;11313;50.116;8.424;2022-11-20T11:32:14;23.80;51.10
22290;DHT22;11313;50.116;8.424;2022-11-20T11:34:40;23.80;51.10
22290;DHT22;11313;50.116;8.424;2022-11-20T11:37:15;23.80;51.10
22290;DHT22;11313;50.116;8.424;2022-11-20T11:39:43;23.90;51.10
22290;DHT22;11313;50.116;8.424;2022-11-20T11:42:13;23.80;51.00
22290;DHT22;11313;50.116;8.424;2022-11-20T11:44:44;23.90;51.10
22290;DHT22;11313;50.116;8.424;2022-11-20T11:47:43;23.90;51.00
22290;DHT22;11313;50.116;8.424;2022-11-20T11:52:46;23.90;51.00
22290;DHT22;11313;50.116;8.424;2022-11-20T11:55:37;23.90;50.90
22290;DHT22;11313;50.116;8.424;2022-11-20T12:04:19;24.00;50.90
22290;DHT22;11313;50.116;8.424;2022-11-20T12:06:51;24.00;50.90
22290;DHT22;11313;50.116;8.424;2022-11-20T12:09:20;24.00;50.90
22290;DHT22;11313;50.116;8.424;2022-11-20T12:12:02;24.00;50.90
22290;DHT22;11313;50.116;8.424;2022-11-20T12:14:37;24.00;50.90
22290;DHT22;11313;50.116;8.424;2022-11-20T12:17:03;24.00;51.00
22290;DHT22;11313;50.116;8.424;2022-11-20T12:19:30;24.00;50.90
22290;DHT22;11313;50.116;8.424;2022-11-20T12:27:44;24.10;50.80
22290;DHT22;11313;50.116;8.424;2022-11-20T12:30:14;24.10;50.80
22290;DHT22;11313;50.116;8.424;2022-11-20T12:33:19;24.10;50.80
22290;DHT22;11313;50.116;8.424;2022-11-20T12:39:01;24.10;50.80
22290;DHT22;11313;50.116;8.424;2022-11-20T12:48:04;24.10;50.70
22290;DHT22;11313;50.116;8.424;2022-11-20T12:50:53;24.10;50.70
22290;DHT22;11313;50.116;8.424;2022-11-20T12:56:50;24.10;50.70
22290;DHT22;11313;50.116;8.424;2022-11-20T13:06:17;24.10;50.70
22290;DHT22;11313;50.116;8.424;2022-11-20T13:08:23;24.10;50.70
22290;DHT22;11313;50.116;8.424;2022-11-20T13:11:05;24.10;50.80
22290;DHT22;11313;50.116;8.424;2022-11-20T13:16:40;24.10;50.80
22290;DHT22;11313;50.116;8.424;2022-11-20T13:19:12;24.10;50.80
22290;DHT22;11313;50.116;8.424;2022-11-20T13:21:41;24.10;50.80
22290;DHT22;11313;50.116;8.424;2022-11-20T13:24:20;24.10;50.80
22290;DHT22;11313;50.116;8.424;2022-11-20T13:29:34;24.10;50.80
22290;DHT22;11313;50.116;8.424;2022-11-20T13:32:25;24.10;50.90
22290;DHT22;11313;50.116;8.424;2022-11-20T13:34:55;24.00;50.80
22290;DHT22;11313;50.116;8.424;2022-11-20T13:37:39;24.10;50.90
22290;DHT22;11313;50.116;8.424;2022-11-20T13:40:22;24.00;50.90
22290;DHT22;11313;50.116;8.424;2022-11-20T13:42:55;24.10;51.00
22290;DHT22;11313;50.116;8.424;2022-11-20T13:45:28;24.00;50.90
22290;DHT22;11313;50.116;8.424;2022-11-20T13:47:54;24.00;50.90
22290;DHT22;11313;50.116;8.424;2022-11-20T13:51:02;24.00;50.90
22290;DHT22;11313;50.116;8.424;2022-11-20T13:53:25;24.00;51.00
22290;DHT22;11313;50.116;8.424;2022-11-20T13:56:00;24.00;51.00
22290;DHT22;11313;50.116;8.424;2022-11-20T13:58:36;24.00;50.90
22290;DHT22;11313;50.116;8.424;2022-11-20T14:01:17;24.00;51.00
22290;DHT22;11313;50.116;8.424;2022-11-20T14:03:45;24.00;51.00
22290;DHT22;11313;50.116;8.424;2022-11-20T14:06:39;24.00;51.00
22290;DHT22;11313;50.116;8.424;2022-11-20T14:09:00;24.00;51.10
22290;DHT22;11313;50.116;8.424;2022-11-20T14:11:27;24.00;51.10
22290;DHT22;11313;50.116;8.424;2022-11-20T14:14:13;23.90;51.00
22290;DHT22;11313;50.116;8.424;2022-11-20T14:16:40;23.90;51.00
22290;DHT22;11313;50.116;8.424;2022-11-20T14:21:48;23.90;51.10
22290;DHT22;11313;50.116;8.424;2022-11-20T14:24:19;23.90;51.00
22290;DHT22;11313;50.116;8.424;2022-11-20T14:26:45;23.90;51.10
22290;DHT22;11313;50.116;8.424;2022-11-20T14:29:14;23.90;51.10
22290;DHT22;11313;50.116;8.424;2022-11-20T14:31:40;23.90;51.10
22290;DHT22;11313;50.116;8.424;2022-11-20T14:34:17;23.90;51.10
22290;DHT22;11313;50.116;8.424;2022-11-20T14:36:44;23.90;51.10
22290;DHT22;11313;50.116;8.424;2022-11-20T14:39:27;23.90;51.10
22290;DHT22;11313;50.116;8.424;2022-11-20T14:41:54;23.90;51.10
22290;DHT22;11313;50.116;8.424;2022-11-20T14:44:26;23.90;51.10
22290;DHT22;11313;50.116;8.424;2022-11-20T14:46:53;23.90;51.10
22290;DHT22;11313;50.116;8.424;2022-11-20T14:49:19;23.90;51.10
22290;DHT22;11313;50.116;8.424;2022-11-20T14:51:45;23.90;51.10
22290;DHT22;11313;50.116;8.424;2022-11-20T14:54:15;23.90;51.10
22290;DHT22;11313;50.116;8.424;2022-11-20T14:56:41;23.90;51.20
22290;DHT22;11313;50.116;8.424;2022-11-20T14:59:08;23.90;51.10
22290;DHT22;11313;50.116;8.424;2022-11-20T15:01:34;23.90;51.10
22290;DHT22;11313;50.116;8.424;2022-11-20T15:04:20;23.90;51.10
22290;DHT22;11313;50.116;8.424;2022-11-20T15:06:54;23.90;51.10
22290;DHT22;11313;50.116;8.424;2022-11-20T15:09:20;23.90;51.10
22290;DHT22;11313;50.116;8.424;2022-11-20T15:12:15;23.90;51.10
22290;DHT22;11313;50.116;8.424;2022-11-20T15:14:41;23.90;51.10
22290;DHT22;11313;50.116;8.424;2022-11-20T15:17:09;23.90;51.10
22290;DHT22;11313;50.116;8.424;2022-11-20T15:19:36;23.90;51.10
22290;DHT22;11313;50.116;8.424;2022-11-20T15:22:02;23.90;51.10
22290;DHT22;11313;50.116;8.424;2022-11-20T15:24:27;23.90;51.10
22290;DHT22;11313;50.116;8.424;2022-11-20T15:26:52;23.90;51.00
22290;DHT22;11313;50.116;8.424;2022-11-20T15:29:18;23.90;51.00
22290;DHT22;11313;50.116;8.424;2022-11-20T15:31:46;23.90;51.00
22290;DHT22;11313;50.116;8.424;2022-11-20T15:34:12;23.90;51.00
22290;DHT22;11313;50.116;8.424;2022-11-20T15:36:39;23.90;51.00
22290;DHT22;11313;50.116;8.424;2022-11-20T15:39:04;23.90;51.60
22290;DHT22;11313;50.116;8.424;2022-11-20T15:41:33;23.90;51.10
22290;DHT22;11313;50.116;8.424;2022-11-20T15:43:58;24.00;51.10
22290;DHT22;11313;50.116;8.424;2022-11-20T15:46:27;23.90;51.00
22290;DHT22;11313;50.116;8.424;2022-11-20T15:48:55;24.00;51.00
22290;DHT22;11313;50.116;8.424;2022-11-20T15:51:26;23.90;50.90
22290;DHT22;11313;50.116;8.424;2022-11-20T15:53:52;24.00;51.00
22290;DHT22;11313;50.116;8.424;2022-11-20T15:56:17;24.00;51.00
22290;DHT22;11313;50.116;8.424;2022-11-20T15:58:43;24.00;51.00
22290;DHT22;11313;50.116;8.424;2022-11-20T16:01:14;24.00;51.00
22290;DHT22;11313;50.116;8.424;2022-11-20T16:03:40;24.00;51.00
22290;DHT22;11313;50.116;8.424;2022-11-20T16:06:06;24.00;51.00
22290;DHT22;11313;50.116;8.424;2022-11-20T16:08:32;24.00;51.00
22290;DHT22;11313;50.116;8.424;2022-11-20T16:10:58;24.00;51.10
22290;DHT22;11313;50.116;8.424;2022-11-20T16:13:23;24.00;51.00
22290;DHT22;11313;50.116;8.424;2022-11-20T16:16:17;24.00;51.00
22290;DHT22;11313;50.116;8.424;2022-11-20T16:18:44;24.00;51.10
22290;DHT22;11313;50.116;8.424;2022-11-20T16:21:11;24.00;51.00
22290;DHT22;11313;50.116;8.424;2022-11-20T16:23:38;24.00;51.00
22290;DHT22;11313;50.116;8.424;2022-11-20T16:26:12;24.00;51.10
22290;DHT22;11313;50.116;8.424;2022-11-20T16:28:37;24.00;51.00
22290;DHT22;11313;50.116;8.424;2022-11-20T16:31:14;24.00;51.00
22290;DHT22;11313;50.116;8.424;2022-11-20T16:33:40;23.90;50.90
22290;DHT22;11313;50.116;8.424;2022-11-20T16:36:10;23.90;51.00
22290;DHT22;11313;50.116;8.424;2022-11-20T16:38:36;23.90;51.00
22290;DHT22;11313;50.116;8.424;2022-11-20T16:41:03;23.90;50.90
22290;DHT22;11313;50.116;8.424;2022-11-20T16:43:28;23.90;51.00
22290;DHT22;11313;50.116;8.424;2022-11-20T16:45:54;23.90;51.00
22290;DHT22;11313;50.116;8.424;2022-11-20T16:48:19;23.90;51.00
22290;DHT22;11313;50.116;8.424;2022-11-20T16:50:50;23.90;51.00